Aranspass, Texas
Current Conditions -  °F | °C
As of 10:35 AM on Wednesday 22 Oct 2014 (Local Time) from KTFP Reporting Station
Clear Clear  
Wind Chill: 80°   Ceiling: Unl
Heat Index: 83°   Visibility: 10mi
Dew Point: 68°   Wind: 10mph
Humidity: 67%   Direction: 70°ENE
Pressure: 30.06"   Gusts: NA
Location:  27.9399°N, 97.1805°W
Report Text: KTFP 221535Z AUTO 07009KT 10SM CLR 27/20 A3006 RMK AO2 T02670200
Loading
Personal Weather Stations






























Interactive Weather Map
Tropical Storm Tracking
New forecast layout! Learn more

10-Day Weather Forecast

Advertisements
Track Severe Weather on mobile